sensor_id;sensor_type;location;lat;lon;timestamp;pressure;altitude;pressure_sealevel;temperature;humidity
19236;BME280;9752;54.270;12.470;2022-07-04T00:03:13;101460.56;;;14.92;100.00
19236;BME280;9752;54.270;12.470;2022-07-04T00:08:14;101458.28;;;14.81;100.00
19236;BME280;9752;54.270;12.470;2022-07-04T00:13:16;101469.53;;;14.64;100.00
19236;BME280;9752;54.270;12.470;2022-07-04T00:18:19;101469.88;;;14.70;100.00
19236;BME280;9752;54.270;12.470;2022-07-04T00:23:21;101480.16;;;14.67;100.00
19236;BME280;9752;54.270;12.470;2022-07-04T00:28:23;101483.06;;;14.57;100.00
19236;BME280;9752;54.270;12.470;2022-07-04T00:33:26;101485.66;;;14.57;100.00
19236;BME280;9752;54.270;12.470;2022-07-04T00:38:28;101483.41;;;14.63;100.00
19236;BME280;9752;54.270;12.470;2022-07-04T00:43:30;101482.03;;;14.70;100.00
19236;BME280;9752;54.270;12.470;2022-07-04T00:48:33;101486.84;;;14.78;100.00
19236;BME280;9752;54.270;12.470;2022-07-04T00:53:35;101496.75;;;14.84;100.00
19236;BME280;9752;54.270;12.470;2022-07-04T00:58:37;101495.91;;;14.85;100.00
19236;BME280;9752;54.270;12.470;2022-07-04T01:03:41;101496.88;;;14.87;100.00
19236;BME280;9752;54.270;12.470;2022-07-04T01:08:43;101495.50;;;14.94;100.00
19236;BME280;9752;54.270;12.470;2022-07-04T01:13:45;101496.81;;;14.86;100.00
19236;BME280;9752;54.270;12.470;2022-07-04T01:18:48;101503.66;;;14.67;100.00
19236;BME280;9752;54.270;12.470;2022-07-04T01:23:53;101505.53;;;14.55;100.00
19236;BME280;9752;54.270;12.470;2022-07-04T01:28:55;101512.56;;;14.56;100.00
19236;BME280;9752;54.270;12.470;2022-07-04T01:33:57;101513.53;;;14.73;100.00
19236;BME280;9752;54.270;12.470;2022-07-04T01:39:02;101514.50;;;14.75;100.00
19236;BME280;9752;54.270;12.470;2022-07-04T01:44:04;101527.94;;;14.66;100.00
19236;BME280;9752;54.270;12.470;2022-07-04T01:49:06;101534.16;;;14.68;100.00
19236;BME280;9752;54.270;12.470;2022-07-04T01:54:10;101533.03;;;14.79;100.00
19236;BME280;9752;54.270;12.470;2022-07-04T01:59:12;101545.31;;;14.97;100.00
19236;BME280;9752;54.270;12.470;2022-07-04T02:04:14;101538.78;;;15.05;100.00
19236;BME280;9752;54.270;12.470;2022-07-04T02:09:17;101542.44;;;15.25;100.00
19236;BME280;9752;54.270;12.470;2022-07-04T02:14:19;101538.88;;;15.39;100.00
19236;BME280;9752;54.270;12.470;2022-07-04T02:19:21;101530.78;;;15.35;100.00
19236;BME280;9752;54.270;12.470;2022-07-04T02:24:24;101536.16;;;15.38;100.00
19236;BME280;9752;54.270;12.470;2022-07-04T02:29:26;101530.31;;;15.26;100.00
19236;BME280;9752;54.270;12.470;2022-07-04T02:34:28;101524.91;;;15.22;100.00
19236;BME280;9752;54.270;12.470;2022-07-04T02:39:31;101525.56;;;15.18;100.00
19236;BME280;9752;54.270;12.470;2022-07-04T02:44:33;101514.63;;;15.09;100.00
19236;BME280;9752;54.270;12.470;2022-07-04T02:49:35;101510.34;;;14.95;100.00
19236;BME280;9752;54.270;12.470;2022-07-04T02:54:38;101512.50;;;14.86;100.00
19236;BME280;9752;54.270;12.470;2022-07-04T02:59:40;101516.66;;;14.82;100.00
19236;BME280;9752;54.270;12.470;2022-07-04T03:04:41;101515.91;;;14.84;100.00
19236;BME280;9752;54.270;12.470;2022-07-04T03:09:44;101520.06;;;14.81;100.00
19236;BME280;9752;54.270;12.470;2022-07-04T03:14:46;101523.22;;;14.75;100.00
19236;BME280;9752;54.270;12.470;2022-07-04T03:19:48;101517.38;;;14.79;100.00
19236;BME280;9752;54.270;12.470;2022-07-04T03:24:51;101530.00;;;14.72;100.00
19236;BME280;9752;54.270;12.470;2022-07-04T03:29:53;101533.53;;;14.89;100.00
19236;BME280;9752;54.270;12.470;2022-07-04T03:34:55;101521.63;;;14.94;100.00
19236;BME280;9752;54.270;12.470;2022-07-04T03:39:58;101530.13;;;15.22;100.00
19236;BME280;9752;54.270;12.470;2022-07-04T03:45:00;101533.38;;;15.51;100.00
19236;BME280;9752;54.270;12.470;2022-07-04T03:50:02;101532.78;;;15.57;100.00
19236;BME280;9752;54.270;12.470;2022-07-04T03:55:06;101533.69;;;15.57;100.00
19236;BME280;9752;54.270;12.470;2022-07-04T04:00:09;101536.97;;;15.53;100.00
19236;BME280;9752;54.270;12.470;2022-07-04T04:05:14;101542.72;;;15.46;100.00
19236;BME280;9752;54.270;12.470;2022-07-04T04:10:31;101545.31;;;15.46;100.00
19236;BME280;9752;54.270;12.470;2022-07-04T04:15:32;101546.75;;;15.57;100.00
19236;BME280;9752;54.270;12.470;2022-07-04T04:20:34;101553.63;;;15.55;100.00
19236;BME280;9752;54.270;12.470;2022-07-04T04:25:37;101552.81;;;15.56;100.00
19236;BME280;9752;54.270;12.470;2022-07-04T04:30:39;101550.69;;;15.66;100.00
19236;BME280;9752;54.270;12.470;2022-07-04T04:35:41;101550.75;;;15.84;100.00
19236;BME280;9752;54.270;12.470;2022-07-04T04:40:44;101554.59;;;15.90;100.00
19236;BME280;9752;54.270;12.470;2022-07-04T04:45:46;101550.28;;;16.09;100.00
19236;BME280;9752;54.270;12.470;2022-07-04T04:50:47;101543.84;;;16.20;100.00
19236;BME280;9752;54.270;12.470;2022-07-04T04:55:51;101543.66;;;16.33;100.00
19236;BME280;9752;54.270;12.470;2022-07-04T05:00:52;101549.03;;;16.54;100.00
19236;BME280;9752;54.270;12.470;2022-07-04T05:05:54;101549.34;;;16.80;100.00
19236;BME280;9752;54.270;12.470;2022-07-04T05:10:57;101539.41;;;17.10;100.00
19236;BME280;9752;54.270;12.470;2022-07-04T05:15:59;101552.00;;;17.00;100.00
19236;BME280;9752;54.270;12.470;2022-07-04T05:21:01;101577.16;;;17.14;100.00
19236;BME280;9752;54.270;12.470;2022-07-04T05:26:04;101570.16;;;16.95;100.00
19236;BME280;9752;54.270;12.470;2022-07-04T05:31:06;101563.06;;;17.51;100.00
19236;BME280;9752;54.270;12.470;2022-07-04T05:36:08;101567.34;;;17.49;100.00
19236;BME280;9752;54.270;12.470;2022-07-04T05:41:11;101567.56;;;17.14;100.00
19236;BME280;9752;54.270;12.470;2022-07-04T05:46:13;101573.91;;;16.82;100.00
19236;BME280;9752;54.270;12.470;2022-07-04T05:51:14;101576.25;;;17.13;100.00
19236;BME280;9752;54.270;12.470;2022-07-04T05:56:17;101590.38;;;16.62;100.00
19236;BME280;9752;54.270;12.470;2022-07-04T06:01:19;101592.13;;;17.16;100.00
19236;BME280;9752;54.270;12.470;2022-07-04T06:06:21;101600.75;;;17.33;100.00
19236;BME280;9752;54.270;12.470;2022-07-04T06:11:24;101600.34;;;17.24;100.00
19236;BME280;9752;54.270;12.470;2022-07-04T06:16:26;101607.66;;;17.12;100.00
19236;BME280;9752;54.270;12.470;2022-07-04T06:21:28;101623.28;;;17.10;100.00
19236;BME280;9752;54.270;12.470;2022-07-04T06:26:31;101635.78;;;17.16;100.00
19236;BME280;9752;54.270;12.470;2022-07-04T06:31:33;101637.22;;;17.66;100.00
19236;BME280;9752;54.270;12.470;2022-07-04T06:36:35;101642.78;;;16.79;100.00
19236;BME280;9752;54.270;12.470;2022-07-04T06:41:38;101638.22;;;17.11;100.00
19236;BME280;9752;54.270;12.470;2022-07-04T06:46:40;101658.41;;;17.51;100.00
19236;BME280;9752;54.270;12.470;2022-07-04T06:51:41;101665.47;;;17.72;100.00
19236;BME280;9752;54.270;12.470;2022-07-04T06:56:45;101667.53;;;17.60;100.00
19236;BME280;9752;54.270;12.470;2022-07-04T07:01:46;101663.09;;;17.78;100.00
19236;BME280;9752;54.270;12.470;2022-07-04T07:06:48;101674.16;;;18.10;100.00
19236;BME280;9752;54.270;12.470;2022-07-04T07:11:51;101702.72;;;18.02;100.00
19236;BME280;9752;54.270;12.470;2022-07-04T07:16:53;101669.66;;;18.27;100.00
19236;BME280;9752;54.270;12.470;2022-07-04T07:21:55;101672.06;;;18.85;100.00
19236;BME280;9752;54.270;12.470;2022-07-04T07:26:58;101676.88;;;17.92;100.00
19236;BME280;9752;54.270;12.470;2022-07-04T07:32:00;101671.44;;;18.28;100.00
19236;BME280;9752;54.270;12.470;2022-07-04T07:37:02;101678.09;;;17.81;100.00
19236;BME280;9752;54.270;12.470;2022-07-04T07:42:05;101678.28;;;17.66;100.00
19236;BME280;9752;54.270;12.470;2022-07-04T07:47:07;101667.28;;;18.13;100.00
19236;BME280;9752;54.270;12.470;2022-07-04T07:52:09;101672.41;;;18.51;100.00
19236;BME280;9752;54.270;12.470;2022-07-04T07:57:12;101674.44;;;19.23;100.00
19236;BME280;9752;54.270;12.470;2022-07-04T08:02:15;101677.66;;;18.51;100.00
19236;BME280;9752;54.270;12.470;2022-07-04T08:07:16;101681.06;;;18.69;100.00
19236;BME280;9752;54.270;12.470;2022-07-04T08:12:20;101685.19;;;18.84;100.00
19236;BME280;9752;54.270;12.470;2022-07-04T08:17:22;101688.13;;;18.70;100.00
19236;BME280;9752;54.270;12.470;2022-07-04T08:22:24;101709.25;;;18.12;100.00
19236;BME280;9752;54.270;12.470;2022-07-04T08:27:27;101699.81;;;18.16;100.00
19236;BME280;9752;54.270;12.470;2022-07-04T08:32:29;101694.72;;;18.82;100.00
19236;BME280;9752;54.270;12.470;2022-07-04T08:37:30;101703.59;;;18.84;100.00
19236;BME280;9752;54.270;12.470;2022-07-04T08:42:38;101710.81;;;18.89;100.00
19236;BME280;9752;54.270;12.470;2022-07-04T08:47:42;101712.16;;;18.18;100.00
19236;BME280;9752;54.270;12.470;2022-07-04T08:52:47;101705.47;;;18.67;100.00
19236;BME280;9752;54.270;12.470;2022-07-04T08:57:56;101724.06;;;19.36;100.00
19236;BME280;9752;54.270;12.470;2022-07-04T09:03:15;101719.88;;;19.41;100.00
19236;BME280;9752;54.270;12.470;2022-07-04T09:08:17;101726.94;;;18.99;100.00
19236;BME280;9752;54.270;12.470;2022-07-04T09:13:21;101731.56;;;19.04;100.00
19236;BME280;9752;54.270;12.470;2022-07-04T09:18:25;101750.50;;;18.76;100.00
19236;BME280;9752;54.270;12.470;2022-07-04T09:23:28;101747.09;;;18.98;100.00
19236;BME280;9752;54.270;12.470;2022-07-04T09:28:33;101767.19;;;19.40;100.00
19236;BME280;9752;54.270;12.470;2022-07-04T09:33:44;101773.25;;;18.54;100.00
19236;BME280;9752;54.270;12.470;2022-07-04T09:39:03;101759.72;;;18.65;100.00
19236;BME280;9752;54.270;12.470;2022-07-04T09:44:07;101754.47;;;19.07;100.00
19236;BME280;9752;54.270;12.470;2022-07-04T09:49:10;101758.13;;;19.56;100.00
19236;BME280;9752;54.270;12.470;2022-07-04T09:54:13;101760.56;;;18.85;100.00
19236;BME280;9752;54.270;12.470;2022-07-04T09:59:17;101752.78;;;19.53;100.00
19236;BME280;9752;54.270;12.470;2022-07-04T10:04:19;101742.66;;;20.10;100.00
19236;BME280;9752;54.270;12.470;2022-07-04T10:09:21;101753.63;;;20.98;100.00
19236;BME280;9752;54.270;12.470;2022-07-04T10:14:25;101759.81;;;19.99;100.00
19236;BME280;9752;54.270;12.470;2022-07-04T10:19:26;101757.25;;;19.55;100.00
19236;BME280;9752;54.270;12.470;2022-07-04T10:24:28;101758.59;;;20.13;100.00
19236;BME280;9752;54.270;12.470;2022-07-04T10:29:32;101773.59;;;19.92;100.00
19236;BME280;9752;54.270;12.470;2022-07-04T10:34:39;101761.84;;;19.61;100.00
19236;BME280;9752;54.270;12.470;2022-07-04T10:39:41;101754.94;;;20.59;100.00
19236;BME280;9752;54.270;12.470;2022-07-04T10:44:44;101772.59;;;20.36;100.00
19236;BME280;9752;54.270;12.470;2022-07-04T10:49:48;101760.75;;;20.01;100.00
19236;BME280;9752;54.270;12.470;2022-07-04T10:54:50;101756.75;;;19.86;100.00
19236;BME280;9752;54.270;12.470;2022-07-04T11:00:05;101769.06;;;20.12;100.00
19236;BME280;9752;54.270;12.470;2022-07-04T11:05:09;101763.53;;;20.04;100.00
19236;BME280;9752;54.270;12.470;2022-07-04T11:10:19;101755.31;;;20.69;100.00
19236;BME280;9752;54.270;12.470;2022-07-04T11:16:01;101755.38;;;20.97;100.00
19236;BME280;9752;54.270;12.470;2022-07-04T11:21:15;101749.72;;;21.41;100.00
19236;BME280;9752;54.270;12.470;2022-07-04T11:26:16;101767.97;;;19.82;100.00
19236;BME280;9752;54.270;12.470;2022-07-04T11:31:34;101758.34;;;20.07;100.00
19236;BME280;9752;54.270;12.470;2022-07-04T11:36:37;101756.56;;;20.06;100.00
19236;BME280;9752;54.270;12.470;2022-07-04T11:41:42;101755.50;;;20.51;100.00
19236;BME280;9752;54.270;12.470;2022-07-04T11:47:04;101757.38;;;20.77;100.00
19236;BME280;9752;54.270;12.470;2022-07-04T11:52:06;101746.56;;;20.45;100.00
19236;BME280;9752;54.270;12.470;2022-07-04T11:57:20;101743.34;;;20.54;100.00
19236;BME280;9752;54.270;12.470;2022-07-04T12:02:24;101749.53;;;21.08;100.00
19236;BME280;9752;54.270;12.470;2022-07-04T12:07:27;101747.03;;;21.11;100.00
19236;BME280;9752;54.270;12.470;2022-07-04T12:12:29;101759.59;;;20.92;100.00
19236;BME280;9752;54.270;12.470;2022-07-04T12:17:34;101762.53;;;20.74;100.00
19236;BME280;9752;54.270;12.470;2022-07-04T12:22:37;101756.50;;;21.05;100.00
19236;BME280;9752;54.270;12.470;2022-07-04T12:27:39;101763.16;;;21.20;100.00
19236;BME280;9752;54.270;12.470;2022-07-04T12:32:47;101770.75;;;20.34;100.00
19236;BME280;9752;54.270;12.470;2022-07-04T12:38:00;101756.94;;;20.91;100.00
19236;BME280;9752;54.270;12.470;2022-07-04T12:43:03;101751.97;;;20.74;100.00
19236;BME280;9752;54.270;12.470;2022-07-04T12:48:14;101746.75;;;20.76;100.00
19236;BME280;9752;54.270;12.470;2022-07-04T12:53:16;101748.22;;;21.20;100.00
19236;BME280;9752;54.270;12.470;2022-07-04T12:58:18;101745.34;;;21.41;100.00
19236;BME280;9752;54.270;12.470;2022-07-04T13:03:21;101725.09;;;21.13;100.00
19236;BME280;9752;54.270;12.470;2022-07-04T13:08:23;101726.59;;;21.90;100.00
19236;BME280;9752;54.270;12.470;2022-07-04T13:13:25;101715.66;;;21.77;100.00
19236;BME280;9752;54.270;12.470;2022-07-04T13:18:29;101736.97;;;22.15;100.00
19236;BME280;9752;54.270;12.470;2022-07-04T13:23:31;101736.41;;;21.36;100.00
19236;BME280;9752;54.270;12.470;2022-07-04T13:28:33;101723.28;;;21.11;100.00
19236;BME280;9752;54.270;12.470;2022-07-04T13:33:36;101718.72;;;21.61;100.00
19236;BME280;9752;54.270;12.470;2022-07-04T13:38:38;101713.31;;;21.58;100.00
19236;BME280;9752;54.270;12.470;2022-07-04T13:43:40;101725.53;;;21.84;100.00
19236;BME280;9752;54.270;12.470;2022-07-04T13:48:43;101716.47;;;22.38;100.00
19236;BME280;9752;54.270;12.470;2022-07-04T13:53:45;101711.00;;;23.00;100.00
19236;BME280;9752;54.270;12.470;2022-07-04T13:58:47;101705.31;;;22.49;100.00
19236;BME280;9752;54.270;12.470;2022-07-04T14:03:51;101725.47;;;22.13;100.00
19236;BME280;9752;54.270;12.470;2022-07-04T14:08:53;101735.97;;;22.42;100.00
19236;BME280;9752;54.270;12.470;2022-07-04T14:13:55;101720.69;;;22.00;100.00
19236;BME280;9752;54.270;12.470;2022-07-04T14:18:58;101723.44;;;22.68;100.00
19236;BME280;9752;54.270;12.470;2022-07-04T14:24:00;101711.41;;;23.98;100.00
19236;BME280;9752;54.270;12.470;2022-07-04T14:29:02;101708.41;;;24.77;100.00
19236;BME280;9752;54.270;12.470;2022-07-04T14:34:05;101702.16;;;24.72;100.00
19236;BME280;9752;54.270;12.470;2022-07-04T14:39:10;101716.16;;;24.16;100.00
19236;BME280;9752;54.270;12.470;2022-07-04T14:44:12;101702.34;;;24.84;100.00
19236;BME280;9752;54.270;12.470;2022-07-04T14:49:15;101689.72;;;23.76;100.00
19236;BME280;9752;54.270;12.470;2022-07-04T14:54:17;101692.88;;;25.61;100.00
19236;BME280;9752;54.270;12.470;2022-07-04T14:59:19;101695.22;;;24.80;100.00
19236;BME280;9752;54.270;12.470;2022-07-04T15:04:22;101705.63;;;24.21;100.00
19236;BME280;9752;54.270;12.470;2022-07-04T15:09:24;101695.47;;;25.58;100.00
19236;BME280;9752;54.270;12.470;2022-07-04T15:14:25;101696.81;;;26.84;100.00
19236;BME280;9752;54.270;12.470;2022-07-04T15:19:29;101689.13;;;25.47;100.00
19236;BME280;9752;54.270;12.470;2022-07-04T15:24:30;101700.50;;;24.79;100.00
19236;BME280;9752;54.270;12.470;2022-07-04T15:29:32;101690.41;;;25.78;100.00
19236;BME280;9752;54.270;12.470;2022-07-04T15:34:35;101691.31;;;25.82;100.00
19236;BME280;9752;54.270;12.470;2022-07-04T15:39:37;101684.59;;;25.40;100.00
19236;BME280;9752;54.270;12.470;2022-07-04T15:44:39;101685.66;;;26.27;100.00
19236;BME280;9752;54.270;12.470;2022-07-04T15:49:42;101684.69;;;26.21;100.00
19236;BME280;9752;54.270;12.470;2022-07-04T15:54:43;101683.50;;;26.84;100.00
19236;BME280;9752;54.270;12.470;2022-07-04T15:59:45;101682.97;;;27.42;100.00
19236;BME280;9752;54.270;12.470;2022-07-04T16:04:48;101683.72;;;27.20;99.32
19236;BME280;9752;54.270;12.470;2022-07-04T16:09:50;101679.28;;;27.22;92.67
19236;BME280;9752;54.270;12.470;2022-07-04T16:14:52;101685.47;;;27.13;94.20
19236;BME280;9752;54.270;12.470;2022-07-04T16:19:55;101676.03;;;25.62;99.85
19236;BME280;9752;54.270;12.470;2022-07-04T16:24:57;101680.63;;;25.76;100.00
19236;BME280;9752;54.270;12.470;2022-07-04T16:29:59;101683.75;;;23.44;100.00
19236;BME280;9752;54.270;12.470;2022-07-04T16:35:03;101680.28;;;22.71;100.00
19236;BME280;9752;54.270;12.470;2022-07-04T16:40:06;101681.88;;;21.97;100.00
19236;BME280;9752;54.270;12.470;2022-07-04T16:45:08;101671.63;;;22.10;100.00
19236;BME280;9752;54.270;12.470;2022-07-04T16:50:11;101680.16;;;24.79;100.00
19236;BME280;9752;54.270;12.470;2022-07-04T16:55:14;101683.75;;;24.31;100.00
19236;BME280;9752;54.270;12.470;2022-07-04T17:00:16;101680.69;;;25.14;100.00
19236;BME280;9752;54.270;12.470;2022-07-04T17:05:19;101680.19;;;26.15;100.00
19236;BME280;9752;54.270;12.470;2022-07-04T17:10:21;101688.25;;;24.88;100.00
19236;BME280;9752;54.270;12.470;2022-07-04T17:15:23;101696.59;;;21.88;100.00
19236;BME280;9752;54.270;12.470;2022-07-04T17:20:27;101685.69;;;20.38;100.00
19236;BME280;9752;54.270;12.470;2022-07-04T17:25:28;101682.53;;;20.22;100.00
19236;BME280;9752;54.270;12.470;2022-07-04T17:30:30;101677.03;;;19.91;100.00
19236;BME280;9752;54.270;12.470;2022-07-04T17:35:33;101685.41;;;19.58;100.00
19236;BME280;9752;54.270;12.470;2022-07-04T17:40:35;101682.69;;;19.55;100.00
19236;BME280;9752;54.270;12.470;2022-07-04T17:45:37;101680.84;;;19.29;100.00
19236;BME280;9752;54.270;12.470;2022-07-04T17:50:40;101690.28;;;19.24;100.00
19236;BME280;9752;54.270;12.470;2022-07-04T17:55:42;101682.19;;;19.20;100.00
19236;BME280;9752;54.270;12.470;2022-07-04T18:00:43;101680.91;;;19.08;100.00
19236;BME280;9752;54.270;12.470;2022-07-04T18:05:47;101675.47;;;19.26;100.00
19236;BME280;9752;54.270;12.470;2022-07-04T18:10:48;101674.47;;;19.94;100.00
19236;BME280;9752;54.270;12.470;2022-07-04T18:15:50;101681.81;;;19.78;100.00
19236;BME280;9752;54.270;12.470;2022-07-04T18:20:53;101681.00;;;19.11;100.00
19236;BME280;9752;54.270;12.470;2022-07-04T18:25:55;101683.22;;;19.46;100.00
19236;BME280;9752;54.270;12.470;2022-07-04T18:31:02;101690.78;;;20.33;100.00
19236;BME280;9752;54.270;12.470;2022-07-04T18:36:06;101688.13;;;21.69;100.00
19236;BME280;9752;54.270;12.470;2022-07-04T18:41:09;101690.41;;;24.09;100.00
19236;BME280;9752;54.270;12.470;2022-07-04T18:46:28;101705.56;;;22.94;100.00
19236;BME280;9752;54.270;12.470;2022-07-04T18:51:31;101706.47;;;22.27;100.00
19236;BME280;9752;54.270;12.470;2022-07-04T18:56:34;101716.44;;;23.07;100.00
19236;BME280;9752;54.270;12.470;2022-07-04T19:01:36;101726.09;;;21.73;100.00
19236;BME280;9752;54.270;12.470;2022-07-04T19:06:39;101731.38;;;19.88;100.00
19236;BME280;9752;54.270;12.470;2022-07-04T19:11:41;101732.41;;;18.42;100.00
19236;BME280;9752;54.270;12.470;2022-07-04T19:16:43;101731.59;;;18.02;100.00
19236;BME280;9752;54.270;12.470;2022-07-04T19:21:46;101730.50;;;17.79;100.00
19236;BME280;9752;54.270;12.470;2022-07-04T19:26:50;101737.38;;;17.58;100.00
19236;BME280;9752;54.270;12.470;2022-07-04T19:31:53;101741.84;;;17.41;100.00
19236;BME280;9752;54.270;12.470;2022-07-04T19:36:56;101737.16;;;17.15;100.00
19236;BME280;9752;54.270;12.470;2022-07-04T19:41:58;101741.09;;;16.89;100.00
19236;BME280;9752;54.270;12.470;2022-07-04T19:47:00;101749.56;;;16.84;100.00
19236;BME280;9752;54.270;12.470;2022-07-04T19:52:03;101750.72;;;16.72;100.00
19236;BME280;9752;54.270;12.470;2022-07-04T19:57:23;101753.59;;;16.61;100.00
19236;BME280;9752;54.270;12.470;2022-07-04T20:02:25;101749.38;;;16.46;100.00
19236;BME280;9752;54.270;12.470;2022-07-04T20:07:29;101759.03;;;16.47;100.00
19236;BME280;9752;54.270;12.470;2022-07-04T20:12:31;101761.25;;;16.39;100.00
19236;BME280;9752;54.270;12.470;2022-07-04T20:17:33;101766.00;;;16.30;100.00
19236;BME280;9752;54.270;12.470;2022-07-04T20:22:37;101764.16;;;16.28;100.00
19236;BME280;9752;54.270;12.470;2022-07-04T20:27:40;101772.91;;;16.28;100.00
19236;BME280;9752;54.270;12.470;2022-07-04T20:32:43;101764.56;;;16.19;100.00
19236;BME280;9752;54.270;12.470;2022-07-04T20:37:46;101778.97;;;16.11;100.00
19236;BME280;9752;54.270;12.470;2022-07-04T20:42:48;101778.78;;;16.08;100.00
19236;BME280;9752;54.270;12.470;2022-07-04T20:47:50;101773.53;;;16.08;100.00
19236;BME280;9752;54.270;12.470;2022-07-04T20:52:53;101769.38;;;16.11;100.00
19236;BME280;9752;54.270;12.470;2022-07-04T20:57:56;101779.59;;;16.23;100.00
19236;BME280;9752;54.270;12.470;2022-07-04T21:02:57;101766.81;;;16.29;100.00
19236;BME280;9752;54.270;12.470;2022-07-04T21:08:01;101763.97;;;16.25;100.00
19236;BME280;9752;54.270;12.470;2022-07-04T21:13:03;101769.44;;;16.29;100.00
19236;BME280;9752;54.270;12.470;2022-07-04T21:18:05;101767.06;;;16.34;100.00
19236;BME280;9752;54.270;12.470;2022-07-04T21:23:08;101768.38;;;16.42;100.00
19236;BME280;9752;54.270;12.470;2022-07-04T21:28:10;101779.69;;;16.25;100.00
19236;BME280;9752;54.270;12.470;2022-07-04T21:33:11;101780.59;;;16.09;100.00
19236;BME280;9752;54.270;12.470;2022-07-04T21:38:15;101794.06;;;16.00;100.00
19236;BME280;9752;54.270;12.470;2022-07-04T21:43:16;101797.41;;;15.81;100.00
19236;BME280;9752;54.270;12.470;2022-07-04T21:48:18;101801.56;;;15.77;100.00
19236;BME280;9752;54.270;12.470;2022-07-04T21:53:22;101801.84;;;15.98;100.00
19236;BME280;9752;54.270;12.470;2022-07-04T21:58:23;101811.72;;;16.04;100.00
19236;BME280;9752;54.270;12.470;2022-07-04T22:03:25;101808.78;;;15.98;100.00
19236;BME280;9752;54.270;12.470;2022-07-04T22:08:28;101812.25;;;15.82;100.00
19236;BME280;9752;54.270;12.470;2022-07-04T22:13:31;101807.28;;;15.55;100.00
19236;BME280;9752;54.270;12.470;2022-07-04T22:18:32;101817.91;;;15.58;100.00
19236;BME280;9752;54.270;12.470;2022-07-04T22:23:36;101813.03;;;15.65;100.00
19236;BME280;9752;54.270;12.470;2022-07-04T22:28:37;101809.22;;;15.43;100.00
19236;BME280;9752;54.270;12.470;2022-07-04T22:33:39;101808.44;;;15.29;100.00
19236;BME280;9752;54.270;12.470;2022-07-04T22:38:42;101815.84;;;15.21;100.00
19236;BME280;9752;54.270;12.470;2022-07-04T22:43:44;101809.78;;;15.22;100.00
19236;BME280;9752;54.270;12.470;2022-07-04T22:48:46;101814.03;;;15.20;100.00
19236;BME280;9752;54.270;12.470;2022-07-04T22:53:51;101818.38;;;15.05;100.00
19236;BME280;9752;54.270;12.470;2022-07-04T22:59:10;101814.03;;;15.20;100.00
19236;BME280;9752;54.270;12.470;2022-07-04T23:04:12;101823.69;;;15.21;100.00
19236;BME280;9752;54.270;12.470;2022-07-04T23:09:15;101811.84;;;15.28;100.00
19236;BME280;9752;54.270;12.470;2022-07-04T23:14:17;101820.22;;;15.22;100.00
19236;BME280;9752;54.270;12.470;2022-07-04T23:19:19;101823.41;;;15.02;100.00
19236;BME280;9752;54.270;12.470;2022-07-04T23:24:22;101818.16;;;14.87;100.00
19236;BME280;9752;54.270;12.470;2022-07-04T23:29:24;101824.03;;;14.55;100.00
19236;BME280;9752;54.270;12.470;2022-07-04T23:34:26;101822.78;;;14.20;100.00
19236;BME280;9752;54.270;12.470;2022-07-04T23:39:30;101828.31;;;13.96;100.00
19236;BME280;9752;54.270;12.470;2022-07-04T23:44:31;101829.84;;;13.66;100.00
19236;BME280;9752;54.270;12.470;2022-07-04T23:49:33;101831.25;;;13.61;100.00
19236;BME280;9752;54.270;12.470;2022-07-04T23:54:36;101826.44;;;13.40;100.00
19236;BME280;9752;54.270;12.470;2022-07-04T23:59:38;101830.56;;;13.50;100.00
